Time;durP1;ratioP1;P1;durP2;ratioP2;P2;SDS_P1;SDS_P2;PMS_P1;PMS_P2;Temp;Humidity;BMP_temperature;BMP_pressure;BME280_temperature;BME280_humidity;BME280_pressure;Samples;Min_cycle;Max_cycle;Signal;HPM_P1;HPM_P2
2023/08/04 00:00:34;;;;;;;0.28;0.28;;;;;;;;;;5072865;28;20069;-68
2023/08/04 00:02:59;;;;;;;0.20;0.20;;;;;;;;;;5072589;28;20369;-68
2023/08/04 00:05:25;;;;;;;0.20;0.20;;;;;;;;;;5072849;28;20817;-68
2023/08/04 00:07:50;;;;;;;0.20;0.20;;;;;;;;;;5073068;28;20024;-70
2023/08/04 00:10:16;;;;;;;0.20;0.20;;;;;;;;;;5037322;28;20091;-68
2023/08/04 00:12:42;;;;;;;0.57;0.57;;;;;;;;;;5072623;28;20024;-71
2023/08/04 00:15:08;;;;;;;0.30;0.30;;;;;;;;;;5071816;28;20032;-68
2023/08/04 00:17:36;;;;;;;0.47;0.47;;;;;;;;;;5072852;28;20040;-72
2023/08/04 00:20:04;;;;;;;0.20;0.20;;;;;;;;;;5038196;28;20043;-70
2023/08/04 00:22:30;;;;;;;0.20;0.20;;;;;;;;;;5072752;28;20033;-70
2023/08/04 00:24:59;;;;;;;0.20;0.20;;;;;;;;;;5054744;28;20047;-70
2023/08/04 00:27:24;;;;;;;;;;;;;;;;;;5055044;28;20537;-70
2023/08/04 00:29:50;;;;;;;0.20;0.20;;;;;;;;;;5054807;28;19912;-68
2023/08/04 00:32:15;;;;;;;0.60;0.60;;;;;;;;;;5072651;28;20036;-68
2023/08/04 00:34:41;;;;;;;0.20;0.20;;;;;;;;;;5072019;28;20075;-69
2023/08/04 00:37:06;;;;;;;0.90;0.80;;;;;;;;;;5072522;28;20063;-68
2023/08/04 00:39:32;;;;;;;0.20;0.20;;;;;;;;;;5072633;28;20037;-68
2023/08/04 00:41:57;;;;;;;0.20;0.20;;;;;;;;;;5072124;28;20433;-68
2023/08/04 00:44:22;;;;;;;0.32;0.32;;;;;;;;;;5053766;28;20143;-69
2023/08/04 00:46:48;;;;;;;0.20;0.20;;;;;;;;;;5071526;28;20039;-68
2023/08/04 00:49:14;;;;;;;0.20;0.20;;;;;;;;;;5071832;28;20077;-68
2023/08/04 00:51:40;;;;;;;0.20;0.20;;;;;;;;;;5072213;28;20391;-68
2023/08/04 00:54:06;;;;;;;0.20;0.20;;;;;;;;;;5071976;28;20048;-68
2023/08/04 00:56:32;;;;;;;0.20;0.20;;;;;;;;;;5072029;28;20033;-68
2023/08/04 00:58:57;;;;;;;0.20;0.20;;;;;;;;;;5072151;28;20035;-68
2023/08/04 01:01:23;;;;;;;0.20;0.20;;;;;;;;;;5072228;28;20032;-68
2023/08/04 01:03:48;;;;;;;0.20;0.20;;;;;;;;;;5071941;28;20033;-69
2023/08/04 01:06:20;;;;;;;0.20;0.20;;;;;;;;;;5072379;28;20029;-68
2023/08/04 01:09:03;;;;;;;0.20;0.20;;;;;;;;;;5071911;28;20075;-68
2023/08/04 01:11:32;;;;;;;0.20;0.20;;;;;;;;;;5070673;28;20050;-68
2023/08/04 01:13:58;;;;;;;0.20;0.20;;;;;;;;;;5069417;28;20029;-70
2023/08/04 01:16:24;;;;;;;0.20;0.20;;;;;;;;;;5086803;28;20040;-68
2023/08/04 01:18:49;;;;;;;0.20;0.20;;;;;;;;;;5090105;28;20407;-69
2023/08/04 01:21:15;;;;;;;0.20;0.20;;;;;;;;;;5091711;28;20031;-68
2023/08/04 01:23:40;;;;;;;0.20;0.20;;;;;;;;;;5093317;28;20479;-69
2023/08/04 01:26:09;;;;;;;0.20;0.20;;;;;;;;;;5093455;28;20039;-68
2023/08/04 01:28:34;;;;;;;0.20;0.20;;;;;;;;;;5094796;28;20479;-68
2023/08/04 01:31:00;;;;;;;0.20;0.20;;;;;;;;;;5080986;28;20082;-69
2023/08/04 01:33:26;;;;;;;0.20;0.20;;;;;;;;;;5075066;28;20033;-69
2023/08/04 01:35:54;;;;;;;0.20;0.20;;;;;;;;;;5073710;28;20372;-67
2023/08/04 01:38:19;;;;;;;0.20;0.20;;;;;;;;;;5074859;28;20033;-66
2023/08/04 01:40:45;;;;;;;4.45;4.18;;;;;;;;;;5073989;28;20399;-69
2023/08/04 01:43:10;;;;;;;0.20;0.20;;;;;;;;;;5074388;28;20024;-68
2023/08/04 01:45:36;;;;;;;0.45;0.45;;;;;;;;;;5074710;28;20040;-68
2023/08/04 01:48:01;;;;;;;1.75;0.30;;;;;;;;;;5074935;28;20025;-68
2023/08/04 01:50:26;;;;;;;0.20;0.20;;;;;;;;;;5074848;28;20036;-68
2023/08/04 01:52:53;;;;;;;0.43;0.43;;;;;;;;;;5064399;28;20039;-69
2023/08/04 01:55:18;;;;;;;0.50;0.50;;;;;;;;;;5077473;28;20025;-67
2023/08/04 01:57:44;;;;;;;0.20;0.20;;;;;;;;;;5072652;28;20384;-67
2023/08/04 02:00:10;;;;;;;0.28;0.28;;;;;;;;;;5068066;28;20032;-69
2023/08/04 02:02:39;;;;;;;0.20;0.20;;;;;;;;;;5094462;28;20028;-68
2023/08/04 02:05:05;;;;;;;0.20;0.20;;;;;;;;;;5095093;28;20028;-68
2023/08/04 02:07:30;;;;;;;10.13;9.50;;;;;;;;;;5095089;28;20032;-68
2023/08/04 02:09:56;;;;;;;0.20;0.20;;;;;;;;;;5060261;28;20505;-68
2023/08/04 02:12:21;;;;;;;0.20;0.20;;;;;;;;;;5094882;28;20130;-69
2023/08/04 02:14:46;;;;;;;0.20;0.20;;;;;;;;;;5094764;28;20467;-68
2023/08/04 02:17:12;;;;;;;0.85;0.73;;;;;;;;;;5078406;28;20044;-68
2023/08/04 02:19:38;;;;;;;0.60;0.57;;;;;;;;;;5074839;28;20040;-67
2023/08/04 02:22:03;;;;;;;0.20;0.20;;;;;;;;;;5074572;28;20029;-68
2023/08/04 02:24:31;;;;;;;0.20;0.20;;;;;;;;;;5074344;28;20488;-67
2023/08/04 02:26:56;;;;;;;0.20;0.20;;;;;;;;;;5074387;28;20043;-67
2023/08/04 02:29:21;;;;;;;1.85;1.75;;;;;;;;;;5074330;28;20447;-67
2023/08/04 02:31:47;;;;;;;0.20;0.20;;;;;;;;;;5073242;28;20036;-67
2023/08/04 02:34:14;;;;;;;0.20;0.20;;;;;;;;;;5073206;28;20028;-67
2023/08/04 02:36:39;;;;;;;0.20;0.20;;;;;;;;;;5074205;28;20029;-67
2023/08/04 02:39:05;;;;;;;0.20;0.20;;;;;;;;;;5074434;28;20189;-67
2023/08/04 02:41:32;;;;;;;0.25;0.25;;;;;;;;;;5074292;28;20039;-67
2023/08/04 02:43:57;;;;;;;0.20;0.20;;;;;;;;;;5074328;28;20127;-67
2023/08/04 02:46:25;;;;;;;0.20;0.20;;;;;;;;;;5074018;28;20064;-67
2023/08/04 02:48:50;;;;;;;0.20;0.20;;;;;;;;;;5074161;28;20067;-68
2023/08/04 02:51:16;;;;;;;0.20;0.20;;;;;;;;;;5056243;28;20068;-68
2023/08/04 02:53:45;;;;;;;0.20;0.20;;;;;;;;;;5074196;28;20044;-68
2023/08/04 02:56:14;;;;;;;0.20;0.20;;;;;;;;;;5052512;28;20480;-68
2023/08/04 02:58:40;;;;;;;;;;;;;;;;;;5054551;28;20434;-68
2023/08/04 03:01:05;;;;;;;0.20;0.20;;;;;;;;;;5053822;28;19909;-68
2023/08/04 03:03:31;;;;;;;0.20;0.20;;;;;;;;;;5049626;28;20393;-68
2023/08/04 03:06:00;;;;;;;0.20;0.20;;;;;;;;;;5050167;28;20123;-69
2023/08/04 03:08:26;;;;;;;0.20;0.20;;;;;;;;;;5050106;28;20125;-68
2023/08/04 03:10:51;;;;;;;0.20;0.20;;;;;;;;;;5050018;28;20123;-68
2023/08/04 03:13:16;;;;;;;0.20;0.20;;;;;;;;;;5050087;28;20089;-69
2023/08/04 03:15:42;;;;;;;0.22;0.22;;;;;;;;;;5057691;28;20143;-68
2023/08/04 03:18:07;;;;;;;0.20;0.20;;;;;;;;;;5078962;28;20032;-69
2023/08/04 03:20:36;;;;;;;0.30;0.30;;;;;;;;;;5069590;28;20464;-69
2023/08/04 03:23:02;;;;;;;0.20;0.20;;;;;;;;;;5068245;28;20420;-67
2023/08/04 03:25:27;;;;;;;0.20;0.20;;;;;;;;;;5069571;28;20032;-68
2023/08/04 03:27:53;;;;;;;0.20;0.20;;;;;;;;;;5068531;28;20032;-68
2023/08/04 03:30:18;;;;;;;0.20;0.20;;;;;;;;;;5068058;28;20399;-68
2023/08/04 03:32:43;;;;;;;0.20;0.20;;;;;;;;;;5069716;28;20024;-67
2023/08/04 03:35:09;;;;;;;0.20;0.20;;;;;;;;;;5069368;28;20032;-68
2023/08/04 03:37:36;;;;;;;0.20;0.20;;;;;;;;;;5069256;28;20135;-67
2023/08/04 03:40:01;;;;;;;0.20;0.20;;;;;;;;;;5069388;28;20488;-70
2023/08/04 03:42:27;;;;;;;0.20;0.20;;;;;;;;;;5069627;28;20052;-70
2023/08/04 03:44:52;;;;;;;0.20;0.20;;;;;;;;;;5068546;28;20040;-68
2023/08/04 03:47:18;;;;;;;0.20;0.20;;;;;;;;;;5068830;28;20032;-68
2023/08/04 03:49:43;;;;;;;0.20;0.20;;;;;;;;;;5069151;28;20090;-68
2023/08/04 03:52:08;;;;;;;0.20;0.20;;;;;;;;;;5069355;28;20032;-69
2023/08/04 03:54:34;;;;;;;0.20;0.20;;;;;;;;;;5069410;28;20036;-68
2023/08/04 03:57:00;;;;;;;0.20;0.20;;;;;;;;;;5069244;28;20029;-69
2023/08/04 03:59:25;;;;;;;0.20;0.20;;;;;;;;;;5069018;28;20165;-70
2023/08/04 04:01:50;;;;;;;0.20;0.20;;;;;;;;;;5067963;28;20074;-68
2023/08/04 04:04:16;;;;;;;0.20;0.20;;;;;;;;;;5068750;28;20041;-68
2023/08/04 04:06:41;;;;;;;0.20;0.20;;;;;;;;;;5068821;28;20043;-68
2023/08/04 04:09:07;;;;;;;0.20;0.20;;;;;;;;;;5068762;28;20067;-69
2023/08/04 04:11:32;;;;;;;0.20;0.20;;;;;;;;;;5068644;28;20062;-69
2023/08/04 04:13:58;;;;;;;0.20;0.20;;;;;;;;;;5050820;28;20115;-68
2023/08/04 04:16:26;;;;;;;0.20;0.20;;;;;;;;;;5067879;28;20439;-69
2023/08/04 04:18:52;;;;;;;0.15;0.15;;;;;;;;;;5050985;28;20043;-68
2023/08/04 04:21:17;;;;;;;0.20;0.20;;;;;;;;;;5068620;28;20041;-69
2023/08/04 04:23:42;;;;;;;0.15;0.15;;;;;;;;;;5068949;28;20028;-69
2023/08/04 04:26:08;;;;;;;0.20;0.20;;;;;;;;;;5067953;28;20036;-68
2023/08/04 04:28:33;;;;;;;0.20;0.20;;;;;;;;;;5068196;28;20492;-69
2023/08/04 04:31:05;;;;;;;0.10;0.10;;;;;;;;;;5064782;28;20028;-70
2023/08/04 04:33:30;;;;;;;0.20;0.20;;;;;;;;;;5051289;28;20016;-68
2023/08/04 04:35:56;;;;;;;0.20;0.20;;;;;;;;;;5068602;28;20441;-68
2023/08/04 04:38:27;;;;;;;0.25;0.25;;;;;;;;;;5050386;28;20028;-67
2023/08/04 04:41:00;;;;;;;0.20;0.20;;;;;;;;;;5050147;28;20525;-71
2023/08/04 04:43:26;;;;;;;14.75;13.75;;;;;;;;;;5050500;28;20036;-70
2023/08/04 04:45:51;;;;;;;0.28;0.28;;;;;;;;;;5068107;28;20471;-68
2023/08/04 04:48:18;;;;;;;0.10;0.10;;;;;;;;;;5068587;28;20484;-67
2023/08/04 04:50:43;;;;;;;0.20;0.20;;;;;;;;;;5067713;28;20595;-68
2023/08/04 04:53:09;;;;;;;0.25;0.25;;;;;;;;;;5068286;28;20115;-68
2023/08/04 04:55:35;;;;;;;0.73;0.73;;;;;;;;;;5068712;28;20106;-67
2023/08/04 04:58:00;;;;;;;0.20;0.20;;;;;;;;;;5072255;28;20025;-69
2023/08/04 05:00:26;;;;;;;0.20;0.20;;;;;;;;;;5052751;28;20674;-68
2023/08/04 05:02:51;;;;;;;0.17;0.17;;;;;;;;;;5071323;28;20032;-71
2023/08/04 05:05:16;;;;;;;0.30;0.30;;;;;;;;;;5071172;28;20036;-68
2023/08/04 05:07:42;;;;;;;0.20;0.20;;;;;;;;;;5063053;28;20029;-67
2023/08/04 05:10:08;;;;;;;0.20;0.20;;;;;;;;;;5051896;28;20503;-68
2023/08/04 05:12:33;;;;;;;1.85;1.75;;;;;;;;;;5070924;28;20039;-68
2023/08/04 05:14:59;;;;;;;0.10;0.10;;;;;;;;;;5074106;28;20025;-70
2023/08/04 05:17:24;;;;;;;0.20;0.20;;;;;;;;;;5074375;28;20032;-67
2023/08/04 05:19:50;;;;;;;0.25;0.25;;;;;;;;;;5078714;28;20553;-69
2023/08/04 05:22:15;;;;;;;0.10;0.10;;;;;;;;;;5053718;28;20120;-68
2023/08/04 05:24:41;;;;;;;0.20;0.20;;;;;;;;;;5071368;28;20029;-69
2023/08/04 05:27:06;;;;;;;0.20;0.20;;;;;;;;;;5071515;28;20407;-68
2023/08/04 05:29:31;;;;;;;0.30;0.30;;;;;;;;;;5054994;28;20082;-68
2023/08/04 05:31:57;;;;;;;0.20;0.20;;;;;;;;;;5062070;28;20091;-69
2023/08/04 05:34:22;;;;;;;1.00;0.77;;;;;;;;;;5076161;28;20036;-69
2023/08/04 05:36:48;;;;;;;0.20;0.20;;;;;;;;;;5089609;28;20107;-69
2023/08/04 05:39:13;;;;;;;0.20;0.20;;;;;;;;;;5070688;28;20036;-69
2023/08/04 05:41:38;;;;;;;0.65;0.45;;;;;;;;;;5055128;28;20344;-68
2023/08/04 05:44:04;;;;;;;0.30;0.30;;;;;;;;;;5091366;28;20118;-69
2023/08/04 05:46:29;;;;;;;0.30;0.30;;;;;;;;;;5091413;28;20024;-69
2023/08/04 05:48:55;;;;;;;0.40;0.40;;;;;;;;;;5073407;28;20024;-68
2023/08/04 05:51:20;;;;;;;0.20;0.20;;;;;;;;;;5091717;28;20476;-68
2023/08/04 05:53:45;;;;;;;0.20;0.20;;;;;;;;;;5055824;28;20044;-67
2023/08/04 05:56:11;;;;;;;0.88;0.75;;;;;;;;;;5070324;28;20028;-70
2023/08/04 05:58:36;;;;;;;0.30;0.30;;;;;;;;;;5068573;28;20499;-68
2023/08/04 06:01:02;;;;;;;0.70;0.70;;;;;;;;;;5066778;28;20507;-68
2023/08/04 06:03:27;;;;;;;1.17;1.17;;;;;;;;;;5069094;28;20036;-69
2023/08/04 06:05:52;;;;;;;0.20;0.20;;;;;;;;;;5069191;28;20039;-69
2023/08/04 06:08:18;;;;;;;0.68;0.68;;;;;;;;;;5068840;28;20525;-69
2023/08/04 06:10:43;;;;;;;0.20;0.20;;;;;;;;;;5069404;28;20044;-69
2023/08/04 06:13:09;;;;;;;0.20;0.20;;;;;;;;;;5068873;28;20671;-68
2023/08/04 06:15:35;;;;;;;0.20;0.20;;;;;;;;;;5052551;28;20498;-68
2023/08/04 06:18:00;;;;;;;0.63;0.63;;;;;;;;;;5070801;28;20048;-70
2023/08/04 06:20:26;;;;;;;0.20;0.20;;;;;;;;;;5070315;28;20033;-72
2023/08/04 06:22:51;;;;;;;0.70;0.52;;;;;;;;;;5071229;28;20036;-69
2023/08/04 06:25:16;;;;;;;3.28;1.05;;;;;;;;;;5070476;28;20115;-68
2023/08/04 06:27:42;;;;;;;0.30;0.30;;;;;;;;;;5069845;28;20094;-68
2023/08/04 06:30:08;;;;;;;0.20;0.20;;;;;;;;;;5070643;28;20051;-69
2023/08/04 06:32:33;;;;;;;0.20;0.20;;;;;;;;;;5070632;28;20396;-69
2023/08/04 06:34:58;;;;;;;4.32;1.13;;;;;;;;;;5070440;28;20024;-72
2023/08/04 06:37:24;;;;;;;0.20;0.20;;;;;;;;;;5070639;28;20041;-69
2023/08/04 06:39:50;;;;;;;1.42;0.65;;;;;;;;;;5070309;28;20044;-69
2023/08/04 06:42:16;;;;;;;0.38;0.38;;;;;;;;;;5070746;28;20068;-71
2023/08/04 06:44:41;;;;;;;0.65;0.65;;;;;;;;;;5070624;28;20035;-68
2023/08/04 06:47:07;;;;;;;0.30;0.30;;;;;;;;;;5068566;28;20472;-69
2023/08/04 06:49:34;;;;;;;1.05;1.05;;;;;;;;;;5069417;28;20024;-70
2023/08/04 06:52:00;;;;;;;0.30;0.30;;;;;;;;;;5069791;28;20101;-70
2023/08/04 06:54:25;;;;;;;0.20;0.20;;;;;;;;;;5070185;28;20040;-69
2023/08/04 06:56:50;;;;;;;0.20;0.20;;;;;;;;;;5068842;28;20036;-69
2023/08/04 06:59:16;;;;;;;0.40;0.40;;;;;;;;;;5069703;28;20024;-68
2023/08/04 07:01:41;;;;;;;0.68;0.68;;;;;;;;;;5065704;28;20056;-70
2023/08/04 07:04:07;;;;;;;0.30;0.30;;;;;;;;;;5050080;28;20045;-70
2023/08/04 07:06:32;;;;;;;1.52;0.77;;;;;;;;;;5067801;28;20020;-70
2023/08/04 07:08:57;;;;;;;4.28;3.03;;;;;;;;;;5070641;28;20426;-68
2023/08/04 07:11:23;;;;;;;1.52;1.27;;;;;;;;;;5068408;28;20040;-71
2023/08/04 07:13:48;;;;;;;0.32;0.32;;;;;;;;;;5068443;28;20039;-68
2023/08/04 07:16:13;;;;;;;1.25;0.95;;;;;;;;;;5066532;28;20486;-71
2023/08/04 07:18:39;;;;;;;0.50;0.50;;;;;;;;;;5066941;28;20036;-69
2023/08/04 07:21:09;;;;;;;0.30;0.30;;;;;;;;;;5067383;28;20107;-69
2023/08/04 07:23:34;;;;;;;0.50;0.50;;;;;;;;;;5067726;28;20028;-69
2023/08/04 07:26:00;;;;;;;0.20;0.20;;;;;;;;;;5067820;28;20050;-68
2023/08/04 07:28:25;;;;;;;0.77;0.77;;;;;;;;;;5069622;28;20440;-68
2023/08/04 07:30:51;;;;;;;1.27;0.75;;;;;;;;;;5069329;28;20599;-69
2023/08/04 07:33:16;;;;;;;0.45;0.45;;;;;;;;;;5069478;28;20039;-68
2023/08/04 07:35:42;;;;;;;0.28;0.28;;;;;;;;;;5069513;28;20021;-69
2023/08/04 07:38:07;;;;;;;4.32;1.45;;;;;;;;;;5069437;28;20036;-68
2023/08/04 07:40:37;;;;;;;2.00;1.30;;;;;;;;;;5068741;28;20058;-69
2023/08/04 07:43:03;;;;;;;5.07;1.35;;;;;;;;;;5068985;28;20037;-68
2023/08/04 07:45:28;;;;;;;0.40;0.40;;;;;;;;;;5069117;28;20035;-68
2023/08/04 07:47:53;;;;;;;0.25;0.25;;;;;;;;;;5068502;28;20038;-68
2023/08/04 07:50:19;;;;;;;0.47;0.45;;;;;;;;;;5063029;28;20541;-69
2023/08/04 07:52:44;;;;;;;0.90;0.90;;;;;;;;;;5051673;28;20067;-72
2023/08/04 07:55:10;;;;;;;0.55;0.32;;;;;;;;;;5049518;28;20457;-69
2023/08/04 07:57:35;;;;;;;0.30;0.30;;;;;;;;;;5049177;28;20064;-68
2023/08/04 08:00:00;;;;;;;0.60;0.60;;;;;;;;;;5045526;28;20081;-69
2023/08/04 08:02:26;;;;;;;2.30;1.20;;;;;;;;;;5089283;28;20040;-67
2023/08/04 08:04:51;;;;;;;1.20;0.75;;;;;;;;;;5089513;28;20388;-68
2023/08/04 08:07:17;;;;;;;1.35;1.10;;;;;;;;;;5070664;28;20127;-69
2023/08/04 08:09:42;;;;;;;0.60;0.60;;;;;;;;;;5067205;28;20025;-68
2023/08/04 08:12:07;;;;;;;1.40;0.93;;;;;;;;;;5066623;28;20388;-68
2023/08/04 08:14:33;;;;;;;1.35;1.10;;;;;;;;;;5056192;28;20029;-69
2023/08/04 08:16:58;;;;;;;0.30;0.30;;;;;;;;;;5062130;28;20039;-69
2023/08/04 08:19:24;;;;;;;1.55;0.82;;;;;;;;;;5081212;28;20035;-70
2023/08/04 08:21:49;;;;;;;0.57;0.57;;;;;;;;;;5060471;28;20028;-69
2023/08/04 08:24:14;;;;;;;1.00;0.82;;;;;;;;;;5044983;28;20059;-71
2023/08/04 08:26:40;;;;;;;2.38;1.33;;;;;;;;;;5066745;28;20062;-72
2023/08/04 08:29:06;;;;;;;0.40;0.40;;;;;;;;;;5066490;28;20024;-70
2023/08/04 08:31:31;;;;;;;0.90;0.90;;;;;;;;;;5064443;28;20466;-71
2023/08/04 08:33:57;;;;;;;0.32;0.32;;;;;;;;;;5066229;28;20045;-70
2023/08/04 08:36:22;;;;;;;3.42;1.73;;;;;;;;;;5065890;28;20032;-71
2023/08/04 08:38:47;;;;;;;4.72;1.85;;;;;;;;;;5066580;28;20087;-71
2023/08/04 08:41:13;;;;;;;3.38;2.05;;;;;;;;;;5066582;28;20075;-70
2023/08/04 08:43:43;;;;;;;5.47;2.47;;;;;;;;;;5066550;28;20032;-70
2023/08/04 08:46:09;;;;;;;1.13;0.90;;;;;;;;;;5066687;28;20737;-70
2023/08/04 08:48:37;;;;;;;0.50;0.50;;;;;;;;;;5064757;28;20024;-71
2023/08/04 08:51:06;;;;;;;4.60;1.45;;;;;;;;;;5065112;28;20476;-71
2023/08/04 08:53:31;;;;;;;3.67;1.80;;;;;;;;;;5066625;28;20036;-70
2023/08/04 08:55:59;;;;;;;4.30;1.80;;;;;;;;;;5066547;28;20494;-72
2023/08/04 08:58:25;;;;;;;2.30;1.20;;;;;;;;;;5048349;28;20463;-71
2023/08/04 09:00:51;;;;;;;2.70;1.60;;;;;;;;;;5065615;28;20546;-71
2023/08/04 09:03:17;;;;;;;5.82;2.17;;;;;;;;;;5067548;28;20028;-74
2023/08/04 09:05:42;;;;;;;2.00;1.23;;;;;;;;;;5068448;28;20539;-71
2023/08/04 09:08:07;;;;;;;2.33;1.40;;;;;;;;;;5068358;28;20056;-70
2023/08/04 09:10:34;;;;;;;1.33;1.08;;;;;;;;;;5068148;28;20480;-69
2023/08/04 09:13:00;;;;;;;0.95;0.95;;;;;;;;;;5067930;28;20040;-71
2023/08/04 09:15:33;;;;;;;5.15;1.95;;;;;;;;;;5068071;28;20491;-69
2023/08/04 09:17:59;;;;;;;0.40;0.40;;;;;;;;;;5068090;28;20029;-71
2023/08/04 09:20:28;;;;;;;3.33;1.30;;;;;;;;;;5050326;28;20069;-69
2023/08/04 09:22:54;;;;;;;0.73;0.73;;;;;;;;;;5068253;28;20031;-70
2023/08/04 09:25:19;;;;;;;3.63;1.98;;;;;;;;;;5067728;28;20040;-69
2023/08/04 09:27:49;;;;;;;0.70;0.70;;;;;;;;;;5067529;28;20036;-70
2023/08/04 09:30:15;;;;;;;1.33;1.20;;;;;;;;;;5063954;28;20071;-70
2023/08/04 09:32:42;;;;;;;0.98;0.82;;;;;;;;;;5065234;28;20059;-72
2023/08/04 09:35:08;;;;;;;2.05;0.90;;;;;;;;;;5047933;28;20076;-70
2023/08/04 09:37:34;;;;;;;4.97;1.30;;;;;;;;;;5047833;28;20033;-71
2023/08/04 09:40:00;;;;;;;7.20;3.33;;;;;;;;;;5046024;28;20041;-71
2023/08/04 09:42:26;;;;;;;0.57;0.57;;;;;;;;;;5063925;28;20093;-70
2023/08/04 09:44:52;;;;;;;0.95;0.82;;;;;;;;;;5091794;28;20093;-69
2023/08/04 09:47:20;;;;;;;0.57;0.57;;;;;;;;;;5091352;28;20098;-69
2023/08/04 09:49:45;;;;;;;7.50;1.33;;;;;;;;;;5090904;28;20024;-69
2023/08/04 09:52:11;;;;;;;2.67;1.70;;;;;;;;;;5090323;28;20042;-74
2023/08/04 09:54:36;;;;;;;1.15;0.82;;;;;;;;;;5089448;28;20043;-69
2023/08/04 09:57:02;;;;;;;1.10;1.00;;;;;;;;;;5091218;28;20387;-69
2023/08/04 09:59:28;;;;;;;3.00;0.85;;;;;;;;;;5090192;28;20123;-71
2023/08/04 10:01:54;;;;;;;1.52;0.70;;;;;;;;;;5089172;28;20067;-71
2023/08/04 10:04:20;;;;;;;0.40;0.40;;;;;;;;;;5089250;28;20043;-70
2023/08/04 10:06:46;;;;;;;1.50;1.15;;;;;;;;;;5089137;28;20115;-70
2023/08/04 10:09:12;;;;;;;3.30;1.40;;;;;;;;;;5089235;28;20115;-70
2023/08/04 10:11:37;;;;;;;3.42;1.83;;;;;;;;;;5089654;28;20040;-71
2023/08/04 10:14:04;;;;;;;0.50;0.50;;;;;;;;;;5090185;28;20043;-70
2023/08/04 10:16:31;;;;;;;0.35;0.35;;;;;;;;;;5091259;28;20047;-70
2023/08/04 10:19:00;;;;;;;0.93;0.70;;;;;;;;;;5090876;28;20501;-70
2023/08/04 10:21:30;;;;;;;4.97;1.50;;;;;;;;;;5091172;28;20024;-70
2023/08/04 10:23:58;;;;;;;0.30;0.30;;;;;;;;;;5090858;28;20043;-70
2023/08/04 10:26:24;;;;;;;3.05;1.63;;;;;;;;;;5090724;28;20065;-71
2023/08/04 10:29:06;;;;;;;5.75;2.25;;;;;;;;;;5091015;28;20036;-69
2023/08/04 10:31:41;;;;;;;0.98;0.73;;;;;;;;;;5091456;28;20042;-69
2023/08/04 10:34:25;;;;;;;6.32;2.08;;;;;;;;;;5091001;28;20035;-70
2023/08/04 10:36:54;;;;;;;6.07;1.98;;;;;;;;;;5090623;28;20036;-73
2023/08/04 10:39:29;;;;;;;2.28;1.35;;;;;;;;;;5090437;28;20134;-70
2023/08/04 10:41:55;;;;;;;6.85;2.33;;;;;;;;;;5090658;28;20028;-70
2023/08/04 10:44:25;;;;;;;0.20;0.20;;;;;;;;;;5090487;28;20051;-69
2023/08/04 10:46:52;;;;;;;1.05;0.90;;;;;;;;;;5090537;28;20036;-69
2023/08/04 10:49:17;;;;;;;4.70;1.90;;;;;;;;;;5090035;28;20024;-71
2023/08/04 10:51:45;;;;;;;0.77;0.70;;;;;;;;;;5071871;28;20089;-70
2023/08/04 10:54:11;;;;;;;2.10;1.40;;;;;;;;;;5089896;28;20036;-74
2023/08/04 10:56:36;;;;;;;2.95;1.63;;;;;;;;;;5090152;28;20093;-69
2023/08/04 10:59:02;;;;;;;1.10;1.00;;;;;;;;;;5090206;28;20040;-69
2023/08/04 11:01:28;;;;;;;1.63;1.30;;;;;;;;;;5090480;28;20110;-70
2023/08/04 11:03:54;;;;;;;2.35;1.30;;;;;;;;;;5089938;28;20094;-74
2023/08/04 11:06:19;;;;;;;0.80;0.80;;;;;;;;;;5090383;28;20040;-69
2023/08/04 11:08:45;;;;;;;1.25;1.15;;;;;;;;;;5090262;28;20476;-69
2023/08/04 11:11:10;;;;;;;1.00;0.90;;;;;;;;;;5090010;28;20482;-70
2023/08/04 11:13:38;;;;;;;1.98;1.25;;;;;;;;;;5090055;28;20127;-70
2023/08/04 11:16:03;;;;;;;1.38;0.93;;;;;;;;;;5089814;28;20527;-70
2023/08/04 11:18:32;;;;;;;3.47;1.23;;;;;;;;;;5090314;28;20108;-69
2023/08/04 11:21:01;;;;;;;4.70;2.65;;;;;;;;;;5089851;28;20446;-68
2023/08/04 11:23:28;;;;;;;4.57;1.52;;;;;;;;;;5090053;28;20043;-69
2023/08/04 11:25:54;;;;;;;1.85;1.33;;;;;;;;;;5090252;28;20123;-68
2023/08/04 11:28:20;;;;;;;2.85;1.08;;;;;;;;;;5089717;28;20035;-70
2023/08/04 11:30:45;;;;;;;0.73;0.57;;;;;;;;;;5089852;28;20032;-71
2023/08/04 11:33:11;;;;;;;1.38;0.98;;;;;;;;;;5089260;28;20131;-71
2023/08/04 11:35:36;;;;;;;2.05;1.55;;;;;;;;;;5089612;28;20028;-69
2023/08/04 11:38:05;;;;;;;3.78;1.33;;;;;;;;;;5089951;28;20032;-69
2023/08/04 11:40:30;;;;;;;1.95;1.30;;;;;;;;;;5088239;28;20028;-69
2023/08/04 11:42:57;;;;;;;3.88;1.80;;;;;;;;;;5088696;28;20040;-70
2023/08/04 11:45:22;;;;;;;3.80;2.13;;;;;;;;;;5088584;28;20498;-69
2023/08/04 11:47:48;;;;;;;3.10;1.38;;;;;;;;;;5089495;28;20115;-70
2023/08/04 11:50:14;;;;;;;1.20;0.82;;;;;;;;;;5089695;28;20146;-69
2023/08/04 11:52:39;;;;;;;0.52;0.52;;;;;;;;;;5088124;28;20061;-70
2023/08/04 11:55:05;;;;;;;1.05;0.70;;;;;;;;;;5087368;28;20123;-71
2023/08/04 11:57:31;;;;;;;3.53;1.50;;;;;;;;;;5087317;28;20493;-70
2023/08/04 11:59:57;;;;;;;3.40;1.88;;;;;;;;;;5086511;28;20146;-69
2023/08/04 12:02:23;;;;;;;2.33;1.20;;;;;;;;;;5066717;28;20056;-72
2023/08/04 12:05:05;;;;;;;2.47;1.17;;;;;;;;;;5068772;28;20406;-70
2023/08/04 12:07:31;;;;;;;3.08;1.52;;;;;;;;;;5055751;28;20463;-70
2023/08/04 12:09:57;;;;;;;2.38;1.20;;;;;;;;;;5088815;28;20279;-70
2023/08/04 12:12:35;;;;;;;1.33;1.05;;;;;;;;;;5068537;28;20479;-70
2023/08/04 12:15:01;;;;;;;0.47;0.43;;;;;;;;;;5067885;28;20032;-72
2023/08/04 12:17:42;;;;;;;1.38;1.20;;;;;;;;;;5066169;28;20375;-71
2023/08/04 12:20:08;;;;;;;2.95;1.45;;;;;;;;;;5064200;28;20111;-72
2023/08/04 12:22:35;;;;;;;1.23;0.90;;;;;;;;;;5058865;28;20029;-70
2023/08/04 12:25:02;;;;;;;6.45;2.47;;;;;;;;;;5068548;28;20101;-70
2023/08/04 12:27:28;;;;;;;4.32;0.88;;;;;;;;;;5050576;28;20036;-69
2023/08/04 12:29:54;;;;;;;1.70;0.90;;;;;;;;;;5062603;28;20059;-68
2023/08/04 12:32:19;;;;;;;1.38;1.00;;;;;;;;;;5054230;28;20040;-68
2023/08/04 12:34:45;;;;;;;2.65;0.75;;;;;;;;;;5082842;28;20032;-68
2023/08/04 12:37:10;;;;;;;0.30;0.30;;;;;;;;;;5088590;28;20028;-68
2023/08/04 12:39:36;;;;;;;6.10;1.20;;;;;;;;;;5087329;28;20123;-68
2023/08/04 12:42:01;;;;;;;0.38;0.38;;;;;;;;;;5050853;28;20036;-67
2023/08/04 12:44:27;;;;;;;0.20;0.20;;;;;;;;;;5048505;28;20388;-68
2023/08/04 12:46:52;;;;;;;0.20;0.20;;;;;;;;;;5048508;28;20064;-68
2023/08/04 12:58:43;;;;;;;0.20;0.20;;;;;;;;;;5133548;27;20574;-72
2023/08/04 13:01:08;;;;;;;0.30;0.30;;;;;;;;;;5126379;28;20062;-74
2023/08/04 13:03:34;;;;;;;0.25;0.25;;;;;;;;;;5127018;28;20369;-73
2023/08/04 13:05:59;;;;;;;0.30;0.30;;;;;;;;;;5125864;28;20027;-73
2023/08/04 13:08:24;;;;;;;0.25;0.25;;;;;;;;;;5126043;28;20024;-73
2023/08/04 13:10:50;;;;;;;1.38;0.68;;;;;;;;;;5126074;28;20369;-73
2023/08/04 13:13:15;;;;;;;0.20;0.20;;;;;;;;;;5124940;28;20011;-72
2023/08/04 13:15:44;;;;;;;0.40;0.40;;;;;;;;;;5126277;28;20031;-72
2023/08/04 13:18:09;;;;;;;0.47;0.47;;;;;;;;;;5125877;27;20028;-72
2023/08/04 13:25:40;;;;;;;0.35;0.30;;;;;;;;;;5131278;27;20574;-74
2023/08/04 13:32:27;;;;;;;0.20;0.20;;;;;;;;;;5147042;27;20182;-72
2023/08/04 13:34:52;;;;;;;0.40;0.40;;;;;;;;;;5125941;28;20066;-73
2023/08/04 13:37:17;;;;;;;1.17;0.63;;;;;;;;;;5126064;28;20031;-73
2023/08/04 13:39:43;;;;;;;1.58;0.47;;;;;;;;;;5125787;28;20028;-74
2023/08/04 13:42:08;;;;;;;0.25;0.25;;;;;;;;;;5126049;28;20110;-73
2023/08/04 13:44:34;;;;;;;2.38;0.88;;;;;;;;;;5126354;27;20120;-73
2023/08/04 13:47:00;;;;;;;1.30;0.35;;;;;;;;;;5125814;28;20023;-73
2023/08/04 13:49:25;;;;;;;0.35;0.22;;;;;;;;;;5126268;28;20032;-73
2023/08/04 13:51:51;;;;;;;0.20;0.20;;;;;;;;;;5125103;28;20049;-73
2023/08/04 13:54:16;;;;;;;5.53;0.77;;;;;;;;;;5124688;28;20049;-72
2023/08/04 13:56:44;;;;;;;0.65;0.63;;;;;;;;;;5124795;28;20023;-70
2023/08/04 13:59:09;;;;;;;0.73;0.57;;;;;;;;;;5125147;28;20108;-71
2023/08/04 14:01:35;;;;;;;0.30;0.30;;;;;;;;;;5125158;28;20027;-71
2023/08/04 14:04:01;;;;;;;0.30;0.30;;;;;;;;;;5123632;28;20585;-72
2023/08/04 14:06:26;;;;;;;0.30;0.30;;;;;;;;;;5124498;28;20033;-71
2023/08/04 14:08:51;;;;;;;3.10;1.58;;;;;;;;;;5124431;28;20043;-70
2023/08/04 14:11:17;;;;;;;2.05;1.08;;;;;;;;;;5124522;28;20047;-71
2023/08/04 14:13:43;;;;;;;0.40;0.40;;;;;;;;;;5102975;28;20466;-71
2023/08/04 14:16:09;;;;;;;0.60;0.50;;;;;;;;;;5107021;28;20055;-72
2023/08/04 14:18:43;;;;;;;2.72;2.50;;;;;;;;;;5116032;28;20031;-68
2023/08/04 14:21:12;;;;;;;2.28;0.30;;;;;;;;;;5118247;28;20146;-71
2023/08/04 14:23:37;;;;;;;0.75;0.50;;;;;;;;;;5122419;28;20115;-71
2023/08/04 14:26:03;;;;;;;0.20;0.20;;;;;;;;;;5118824;28;20035;-71
2023/08/04 14:28:28;;;;;;;0.20;0.20;;;;;;;;;;5106006;28;20026;-70
2023/08/04 14:30:54;;;;;;;0.57;0.40;;;;;;;;;;5125247;28;20039;-70
2023/08/04 14:33:20;;;;;;;0.32;0.20;;;;;;;;;;5122621;28;20031;-72
2023/08/04 14:35:45;;;;;;;0.30;0.30;;;;;;;;;;5109235;28;20040;-71
2023/08/04 14:38:11;;;;;;;0.52;0.30;;;;;;;;;;5105157;28;20032;-70
2023/08/04 14:40:40;;;;;;;0.30;0.30;;;;;;;;;;5104906;28;20078;-72
2023/08/04 14:43:05;;;;;;;0.90;0.60;;;;;;;;;;5097883;27;20534;-72
2023/08/04 14:45:31;;;;;;;0.30;0.30;;;;;;;;;;5073418;28;20112;-71
2023/08/04 14:47:57;;;;;;;0.80;0.57;;;;;;;;;;5091239;28;20020;-69
2023/08/04 14:50:22;;;;;;;0.28;0.28;;;;;;;;;;5090658;28;20032;-69
2023/08/04 14:52:47;;;;;;;7.75;1.88;;;;;;;;;;5091829;28;20016;-70
2023/08/04 14:55:13;;;;;;;5.70;1.75;;;;;;;;;;5110813;28;20032;-71